createdAt,value
2023-05-03T00:01:47.708Z,0.00
2023-05-03T00:03:48.080Z,0.00
2023-05-03T00:05:48.410Z,0.00
2023-05-03T00:07:48.694Z,0.00
2023-05-03T00:09:48.964Z,0.00
2023-05-03T00:11:49.384Z,0.00
2023-05-03T00:13:49.625Z,0.00
2023-05-03T00:15:49.946Z,0.00
2023-05-03T00:17:50.232Z,0.00
2023-05-03T00:19:50.628Z,0.00
2023-05-03T00:21:50.906Z,0.00
2023-05-03T00:23:51.195Z,0.00
2023-05-03T00:25:51.609Z,0.00
2023-05-03T00:27:51.890Z,0.00
2023-05-03T00:29:52.195Z,0.00
2023-05-03T00:31:52.462Z,0.00
2023-05-03T00:33:52.915Z,0.00
2023-05-03T00:35:53.161Z,0.00
2023-05-03T00:37:53.457Z,0.00
2023-05-03T00:39:53.747Z,0.00
2023-05-03T00:41:54.164Z,0.00
2023-05-03T00:43:54.473Z,0.00
2023-05-03T00:45:59.398Z,0.00
2023-05-03T00:47:59.963Z,0.00
2023-05-03T00:50:00.507Z,0.00
2023-05-03T00:52:00.923Z,0.00
2023-05-03T00:54:01.193Z,0.00
2023-05-03T00:56:01.621Z,0.00
2023-05-03T00:58:01.901Z,0.00
2023-05-03T01:00:02.301Z,0.00
2023-05-03T01:02:02.746Z,0.00
2023-05-03T01:04:03.306Z,0.00
2023-05-03T01:06:03.688Z,0.00
2023-05-03T01:08:03.963Z,0.00
2023-05-03T01:10:04.592Z,0.00
2023-05-03T01:12:05.145Z,0.00
2023-05-03T01:14:05.428Z,0.00
2023-05-03T01:16:05.724Z,0.00
2023-05-03T01:18:06.112Z,0.00
2023-05-03T01:20:06.637Z,0.00
2023-05-03T01:22:06.977Z,0.00
2023-05-03T01:24:07.377Z,0.00
2023-05-03T01:26:07.641Z,0.00
2023-05-03T01:28:07.928Z,0.00
2023-05-03T01:30:08.228Z,0.00
2023-05-03T01:32:08.539Z,0.00
2023-05-03T01:34:08.964Z,0.00
2023-05-03T01:36:09.243Z,0.00
2023-05-03T01:38:09.530Z,0.00
2023-05-03T01:40:09.839Z,0.00
2023-05-03T01:42:10.236Z,0.00
2023-05-03T01:44:10.501Z,0.00
2023-05-03T01:46:10.876Z,0.00
2023-05-03T01:48:11.203Z,0.00
2023-05-03T01:50:11.624Z,0.00
2023-05-03T01:52:11.877Z,0.00
2023-05-03T01:54:12.208Z,0.00
2023-05-03T01:56:12.488Z,0.00
2023-05-03T01:58:12.888Z,0.00
2023-05-03T02:00:13.172Z,0.00
2023-05-03T02:02:13.483Z,0.00
2023-05-03T02:04:13.814Z,0.00
2023-05-03T02:06:14.249Z,0.00
2023-05-03T02:08:14.510Z,0.00
2023-05-03T02:10:14.962Z,0.00
2023-05-03T02:12:15.337Z,0.00
2023-05-03T02:14:15.721Z,0.00
2023-05-03T02:16:16.024Z,0.00
2023-05-03T02:18:16.305Z,0.00
2023-05-03T02:20:16.575Z,0.00
2023-05-03T02:22:16.990Z,0.00
2023-05-03T02:24:17.257Z,0.00
2023-05-03T02:26:17.595Z,0.00
2023-05-03T02:28:17.880Z,0.00
2023-05-03T02:30:18.284Z,0.00
2023-05-03T02:32:18.537Z,0.00
2023-05-03T02:34:18.941Z,0.00
2023-05-03T02:36:19.245Z,0.00
2023-05-03T02:38:19.523Z,0.00
2023-05-03T02:40:19.792Z,0.00
2023-05-03T02:42:20.244Z,0.00
2023-05-03T02:44:20.525Z,0.00
2023-05-03T02:46:20.954Z,0.00
2023-05-03T02:48:21.192Z,0.00
2023-05-03T02:50:21.529Z,0.00
2023-05-03T02:52:21.821Z,0.00
2023-05-03T02:54:22.259Z,0.00
2023-05-03T02:56:22.510Z,0.00
2023-05-03T02:58:22.946Z,0.00
2023-05-03T03:00:23.218Z,0.00
2023-05-03T03:02:23.655Z,0.00
2023-05-03T03:04:23.978Z,0.00
2023-05-03T03:06:24.537Z,0.00
2023-05-03T03:08:24.828Z,0.00
2023-05-03T03:10:25.155Z,0.00
2023-05-03T03:12:25.450Z,0.00
2023-05-03T03:14:25.885Z,0.00
2023-05-03T03:16:26.172Z,0.00
2023-05-03T03:18:26.466Z,0.00
2023-05-03T03:20:26.758Z,0.00
2023-05-03T03:22:27.168Z,0.00
2023-05-03T03:24:27.421Z,0.00
2023-05-03T03:26:27.762Z,0.00
2023-05-03T03:28:28.058Z,0.00
2023-05-03T03:30:28.407Z,4.00
2023-05-03T03:32:28.721Z,0.00
2023-05-03T03:34:29.121Z,0.00
2023-05-03T03:36:29.441Z,4.00
2023-05-03T03:38:29.694Z,4.00
2023-05-03T03:40:30.001Z,8.00
2023-05-03T03:42:30.313Z,8.00
2023-05-03T03:44:30.579Z,12.00
2023-05-03T03:46:31.018Z,16.00
2023-05-03T03:48:31.344Z,20.00
2023-05-03T03:50:31.858Z,28.00
2023-05-03T03:52:32.138Z,36.00
2023-05-03T03:54:32.398Z,44.00
2023-05-03T03:56:32.694Z,52.00
2023-05-03T03:58:33.133Z,72.00
2023-05-03T04:00:33.368Z,80.00
2023-05-03T04:02:33.807Z,88.00
2023-05-03T04:04:34.286Z,100.00
2023-05-03T04:06:34.810Z,132.00
2023-05-03T04:08:35.147Z,156.00
2023-05-03T04:10:35.437Z,176.00
2023-05-03T04:12:35.732Z,200.00
2023-05-03T04:14:36.142Z,228.00
2023-05-03T04:16:36.425Z,248.00
2023-05-03T04:18:36.705Z,288.00
2023-05-03T04:20:37.014Z,312.00
2023-05-03T04:22:37.422Z,324.00
2023-05-03T04:24:37.695Z,384.00
2023-05-03T04:26:38.017Z,408.00
2023-05-03T04:28:38.276Z,472.00
2023-05-03T04:30:38.642Z,500.00
2023-05-03T04:32:38.974Z,504.00
2023-05-03T04:34:39.235Z,528.00
2023-05-03T04:36:39.571Z,584.00
2023-05-03T04:38:39.951Z,628.00
2023-05-03T04:40:40.232Z,716.00
2023-05-03T04:42:40.531Z,812.00
2023-05-03T04:44:40.851Z,800.00
2023-05-03T04:46:41.370Z,852.00
2023-05-03T04:48:41.682Z,932.00
2023-05-03T04:50:41.995Z,960.00
2023-05-03T04:52:42.312Z,1052.00
2023-05-03T04:54:42.700Z,1076.00
2023-05-03T04:56:42.956Z,1208.00
2023-05-03T04:58:43.239Z,1168.00
2023-05-03T05:00:43.580Z,1152.00
2023-05-03T05:02:43.938Z,1376.00
2023-05-03T05:04:45.331Z,1264.00
2023-05-03T05:06:45.738Z,1348.00
2023-05-03T05:08:46.168Z,1336.00
2023-05-03T05:10:46.440Z,1340.00
2023-05-03T05:12:46.753Z,1460.00
2023-05-03T05:14:47.024Z,1468.00
2023-05-03T05:16:47.562Z,1528.00
2023-05-03T05:18:48.617Z,1692.00
2023-05-03T05:20:48.939Z,1572.00
2023-05-03T05:22:49.244Z,1728.00
2023-05-03T05:24:49.640Z,1736.00
2023-05-03T05:26:49.933Z,1572.00
2023-05-03T05:28:50.241Z,1504.00
2023-05-03T05:30:50.544Z,1576.00
2023-05-03T05:32:50.870Z,1364.00
2023-05-03T05:34:51.116Z,1316.00
2023-05-03T05:36:51.465Z,1400.00
2023-05-03T05:38:51.778Z,1324.00
2023-05-03T05:40:52.109Z,1288.00
2023-05-03T05:42:52.399Z,1392.00
2023-05-03T05:44:52.701Z,1388.00
2023-05-03T05:46:53.000Z,1572.00
2023-05-03T05:48:53.316Z,1556.00
2023-05-03T05:50:53.622Z,1632.00
2023-05-03T05:52:53.916Z,1680.00
2023-05-03T05:54:54.195Z,1772.00
2023-05-03T05:56:54.567Z,1660.00
2023-05-03T05:58:54.801Z,1560.00
2023-05-03T06:00:55.082Z,1652.00
2023-05-03T06:02:55.424Z,1524.00
2023-05-03T06:05:00.658Z,1516.00
2023-05-03T06:07:00.926Z,1472.00
2023-05-03T06:09:04.770Z,1572.00
2023-05-03T06:11:06.565Z,1528.00
2023-05-03T06:13:06.871Z,1580.00
2023-05-03T06:15:07.160Z,1484.00
2023-05-03T06:17:07.494Z,1480.00
2023-05-03T06:19:07.811Z,1528.00
2023-05-03T06:21:08.123Z,1620.00
2023-05-03T06:23:08.423Z,1692.00
2023-05-03T06:25:08.893Z,1580.00
2023-05-03T06:27:09.165Z,1624.00
2023-05-03T06:29:09.486Z,1704.00
2023-05-03T06:31:09.759Z,1592.00
2023-05-03T06:33:10.188Z,1740.00
2023-05-03T06:35:10.487Z,1644.00
2023-05-03T06:37:10.770Z,1688.00
2023-05-03T06:39:11.060Z,1644.00
2023-05-03T06:41:11.406Z,1796.00
2023-05-03T06:43:11.664Z,1736.00
2023-05-03T06:45:12.058Z,1868.00
2023-05-03T06:47:12.414Z,1912.00
2023-05-03T06:49:12.685Z,1908.00
2023-05-03T06:51:13.013Z,1920.00
2023-05-03T06:53:13.307Z,2324.00
2023-05-03T06:55:13.718Z,2624.00
2023-05-03T06:57:13.985Z,3064.00
2023-05-03T06:59:14.277Z,3316.00
2023-05-03T07:01:14.616Z,3316.00
2023-05-03T07:03:14.988Z,3208.00
2023-05-03T07:05:15.274Z,3088.00
2023-05-03T07:07:15.719Z,2772.00
2023-05-03T07:09:16.049Z,2844.00
2023-05-03T07:11:16.467Z,2948.00
2023-05-03T07:13:16.730Z,2944.00
2023-05-03T07:15:17.029Z,2688.00
2023-05-03T07:17:17.331Z,2524.00
2023-05-03T07:19:17.703Z,2640.00
2023-05-03T07:21:17.978Z,3048.00
2023-05-03T07:23:18.278Z,3100.00
2023-05-03T07:25:18.594Z,3120.00
2023-05-03T07:27:18.958Z,3184.00
2023-05-03T07:29:19.190Z,3336.00
2023-05-03T07:31:19.500Z,3152.00
2023-05-03T07:33:19.896Z,3012.00
2023-05-03T07:35:20.352Z,2968.00
2023-05-03T07:37:20.614Z,2724.00
2023-05-03T07:39:20.878Z,2584.00
2023-05-03T07:41:21.190Z,2460.00
2023-05-03T07:43:21.517Z,2664.00
2023-05-03T07:45:21.858Z,2796.00
2023-05-03T07:47:22.123Z,3024.00
2023-05-03T07:49:22.499Z,3400.00
2023-05-03T07:51:22.764Z,4172.00
2023-05-03T07:53:23.046Z,4452.00
2023-05-03T07:55:23.396Z,4220.00
2023-05-03T07:57:23.691Z,4408.00
2023-05-03T07:59:23.971Z,4820.00
2023-05-03T08:01:24.301Z,5048.00
2023-05-03T08:03:24.746Z,4892.00
2023-05-03T08:05:25.270Z,4816.00
2023-05-03T08:07:25.632Z,5060.00
2023-05-03T08:09:25.904Z,5084.00
2023-05-03T08:11:26.218Z,5148.00
2023-05-03T08:13:26.504Z,4648.00
2023-05-03T08:15:26.819Z,4560.00
2023-05-03T08:17:27.147Z,4356.00
2023-05-03T08:19:27.445Z,3876.00
2023-05-03T08:21:27.783Z,3988.00
2023-05-03T08:23:28.063Z,4080.00
2023-05-03T08:25:28.352Z,3580.00
2023-05-03T08:27:28.640Z,3504.00
2023-05-03T08:29:28.948Z,3252.00
2023-05-03T08:31:29.265Z,3324.00
2023-05-03T08:33:29.582Z,2880.00
2023-05-03T08:35:29.901Z,2816.00
2023-05-03T08:37:30.234Z,3048.00
2023-05-03T08:39:30.500Z,3012.00
2023-05-03T08:41:31.152Z,3048.00
2023-05-03T08:43:31.427Z,3200.00
2023-05-03T08:45:31.880Z,3428.00
2023-05-03T08:47:32.199Z,3496.00
2023-05-03T08:49:32.467Z,3380.00
2023-05-03T08:51:32.765Z,3576.00
2023-05-03T08:53:33.115Z,3496.00
2023-05-03T08:55:33.371Z,3856.00
2023-05-03T08:57:33.695Z,3604.00
2023-05-03T08:59:33.973Z,3756.00
2023-05-03T09:01:34.450Z,3460.00
2023-05-03T09:03:34.945Z,3424.00
2023-05-03T09:05:35.355Z,3184.00
2023-05-03T09:07:35.646Z,3276.00
2023-05-03T09:09:36.027Z,2780.00
2023-05-03T09:11:36.303Z,2704.00
2023-05-03T09:13:36.618Z,2696.00
2023-05-03T09:15:36.894Z,2420.00
2023-05-03T09:17:37.329Z,2552.00
2023-05-03T09:19:37.660Z,2308.00
2023-05-03T09:21:37.939Z,2308.00
2023-05-03T09:23:38.269Z,2416.00
2023-05-03T09:25:39.004Z,2948.00
2023-05-03T09:27:39.257Z,3148.00
2023-05-03T09:29:39.549Z,3284.00
2023-05-03T09:31:39.861Z,2952.00
2023-05-03T09:33:40.265Z,2668.00
2023-05-03T09:35:40.547Z,2084.00
2023-05-03T09:37:40.832Z,2220.00
2023-05-03T09:39:41.128Z,2092.00
2023-05-03T09:41:41.463Z,2204.00
2023-05-03T09:43:41.736Z,2684.00
2023-05-03T09:45:42.090Z,2836.00
2023-05-03T09:47:42.417Z,2760.00
2023-05-03T09:49:42.758Z,2856.00
2023-05-03T09:51:43.031Z,2744.00
2023-05-03T09:53:43.358Z,2864.00
2023-05-03T09:55:43.636Z,2724.00
2023-05-03T09:57:43.997Z,2860.00
2023-05-03T09:59:44.293Z,2544.00
2023-05-03T10:01:44.652Z,2568.00
2023-05-03T10:03:45.026Z,2476.00
2023-05-03T10:05:45.429Z,2500.00
2023-05-03T10:07:45.703Z,2508.00
2023-05-03T10:09:45.989Z,2628.00
2023-05-03T10:11:46.286Z,2824.00
2023-05-03T10:13:46.716Z,2616.00
2023-05-03T10:15:46.998Z,2868.00
2023-05-03T10:17:48.597Z,2800.00
2023-05-03T10:19:49.054Z,2916.00
2023-05-03T10:21:49.413Z,2668.00
2023-05-03T10:23:49.697Z,2948.00
2023-05-03T10:25:49.971Z,2776.00
2023-05-03T10:27:50.244Z,2860.00
2023-05-03T10:29:50.756Z,2996.00
2023-05-03T10:31:51.128Z,3112.00
2023-05-03T10:33:51.424Z,3084.00
2023-05-03T10:35:51.725Z,2996.00
2023-05-03T10:37:52.010Z,3280.00
2023-05-03T10:39:52.320Z,3196.00
2023-05-03T10:41:52.649Z,3092.00
2023-05-03T10:43:53.046Z,3056.00
2023-05-03T10:45:53.377Z,3016.00
2023-05-03T10:47:53.671Z,3296.00
2023-05-03T10:49:53.974Z,3236.00
2023-05-03T10:51:54.250Z,3232.00
2023-05-03T10:53:54.537Z,3280.00
2023-05-03T10:55:54.832Z,3192.00
2023-05-03T10:57:55.144Z,3316.00
2023-05-03T10:59:55.390Z,3312.00
2023-05-03T11:01:55.889Z,3192.00
2023-05-03T11:03:56.295Z,3252.00
2023-05-03T11:05:56.638Z,3404.00
2023-05-03T11:07:57.174Z,3236.00
2023-05-03T11:09:57.657Z,3296.00
2023-05-03T11:11:57.958Z,3416.00
2023-05-03T11:13:58.316Z,3480.00
2023-05-03T11:15:58.660Z,3620.00
2023-05-03T11:17:59.030Z,3672.00
2023-05-03T11:19:59.298Z,3560.00
2023-05-03T11:21:59.631Z,3472.00
2023-05-03T11:23:59.900Z,3460.00
2023-05-03T11:26:00.191Z,3600.00
2023-05-03T11:28:00.524Z,3680.00
2023-05-03T11:30:00.802Z,3636.00
2023-05-03T11:32:01.140Z,3892.00
2023-05-03T11:34:01.447Z,3900.00
2023-05-03T11:36:01.695Z,3912.00
2023-05-03T11:38:02.001Z,3748.00
2023-05-03T11:40:02.342Z,3800.00
2023-05-03T11:42:02.663Z,3836.00
2023-05-03T11:44:15.247Z,4028.00
2023-05-03T11:46:08.236Z,3996.00
2023-05-03T11:48:08.656Z,3780.00
2023-05-03T11:50:09.005Z,3816.00
2023-05-03T11:52:09.381Z,4016.00
2023-05-03T11:54:20.995Z,3884.00
2023-05-03T11:56:14.880Z,3288.00
2023-05-03T11:58:15.298Z,3568.00
2023-05-03T12:00:15.599Z,3996.00
2023-05-03T12:02:15.988Z,3984.00
2023-05-03T12:04:16.554Z,4240.00
2023-05-03T12:06:17.894Z,3936.00
2023-05-03T12:08:20.246Z,4336.00
2023-05-03T12:10:25.845Z,4520.00
2023-05-03T12:12:30.750Z,4424.00
2023-05-03T12:14:33.062Z,4388.00
2023-05-03T12:16:34.373Z,4508.00
2023-05-03T12:18:35.095Z,4456.00
2023-05-03T12:22:39.209Z,4340.00
2023-05-03T12:24:39.864Z,4548.00
2023-05-03T12:26:42.171Z,4424.00
2023-05-03T12:28:42.825Z,4552.00
2023-05-03T12:30:45.844Z,4816.00
2023-05-03T12:32:46.701Z,4788.00
2023-05-03T12:34:47.313Z,4664.00
2023-05-03T12:36:49.170Z,4936.00
2023-05-03T12:38:50.702Z,4900.00
2023-05-03T12:40:51.098Z,4772.00
2023-05-03T12:42:51.506Z,4968.00
2023-05-03T12:44:53.604Z,4932.00
2023-05-03T12:46:54.150Z,4948.00
2023-05-03T12:48:54.846Z,5080.00
2023-05-03T12:51:17.625Z,5060.00
2023-05-03T12:53:08.449Z,5092.00
2023-05-03T12:55:11.550Z,5152.00
2023-05-03T12:57:15.425Z,5400.00
2023-05-03T13:03:23.185Z,5312.00
2023-05-03T13:05:34.684Z,5236.00
2023-05-03T13:07:30.482Z,5360.00
2023-05-03T13:10:12.246Z,5532.00
2023-05-03T13:11:37.102Z,5452.00
2023-05-03T13:13:37.397Z,5320.00
2023-05-03T13:15:37.726Z,5408.00
2023-05-03T13:17:38.050Z,5560.00
2023-05-03T13:19:38.495Z,5272.00
2023-05-03T13:21:38.883Z,5540.00
2023-05-03T13:23:39.288Z,5364.00
2023-05-03T13:25:39.687Z,5388.00
2023-05-03T13:27:40.082Z,5596.00
2023-05-03T13:29:40.400Z,5472.00
2023-05-03T13:31:40.804Z,5740.00
2023-05-03T13:33:41.189Z,5924.00
2023-05-03T13:35:41.614Z,5612.00
2023-05-03T13:37:41.867Z,5740.00
2023-05-03T13:39:42.162Z,6004.00
2023-05-03T13:41:42.495Z,5916.00
2023-05-03T13:43:42.914Z,6072.00
2023-05-03T13:45:43.172Z,6148.00
2023-05-03T13:48:04.695Z,5924.00
2023-05-03T13:49:48.688Z,5768.00
2023-05-03T13:51:49.096Z,5792.00
2023-05-03T13:53:49.350Z,6072.00
2023-05-03T13:55:49.633Z,6048.00
2023-05-03T13:57:49.965Z,6080.00
2023-05-03T13:59:50.295Z,5904.00
2023-05-03T14:01:50.716Z,5528.00
2023-05-03T14:03:51.019Z,5456.00
2023-05-03T14:05:51.351Z,6112.00
2023-05-03T14:07:51.704Z,6156.00
2023-05-03T14:09:52.002Z,6176.00
2023-05-03T14:11:53.022Z,5420.00
2023-05-03T14:13:56.306Z,5844.00
2023-05-03T14:15:57.678Z,6116.00
2023-05-03T14:18:01.282Z,5960.00
2023-05-03T14:20:03.276Z,6148.00
2023-05-03T14:22:03.709Z,6108.00
2023-05-03T14:24:04.036Z,5912.00
2023-05-03T14:26:04.355Z,5888.00
2023-05-03T14:28:04.663Z,5856.00
2023-05-03T14:30:05.257Z,5824.00
2023-05-03T14:32:05.928Z,5732.00
2023-05-03T14:34:06.226Z,5920.00
2023-05-03T14:36:06.525Z,5976.00
2023-05-03T14:38:06.805Z,5800.00
2023-05-03T14:40:07.486Z,5736.00
2023-05-03T14:42:08.168Z,5764.00
2023-05-03T14:44:08.485Z,5956.00
2023-05-03T14:46:08.818Z,5900.00
2023-05-03T14:48:09.221Z,5612.00
2023-05-03T14:50:09.542Z,6020.00
2023-05-03T14:52:09.895Z,5840.00
2023-05-03T14:54:10.140Z,5872.00
2023-05-03T14:56:10.462Z,5484.00
2023-05-03T14:58:10.782Z,5776.00
2023-05-03T15:00:11.044Z,5496.00
2023-05-03T15:02:11.443Z,5540.00
2023-05-03T15:04:11.739Z,5644.00
2023-05-03T15:06:12.023Z,5360.00
2023-05-03T15:08:12.332Z,5640.00
2023-05-03T15:10:12.718Z,5560.00
2023-05-03T15:12:13.024Z,5400.00
2023-05-03T15:14:13.364Z,5556.00
2023-05-03T15:16:13.693Z,5592.00
2023-05-03T15:18:14.005Z,5556.00
2023-05-03T15:20:14.353Z,5468.00
2023-05-03T15:22:14.649Z,6040.00
2023-05-03T15:24:15.070Z,5800.00
2023-05-03T15:26:15.396Z,5468.00
2023-05-03T15:28:15.748Z,5604.00
2023-05-03T15:30:16.121Z,5744.00
2023-05-03T15:32:16.411Z,5256.00
2023-05-03T15:34:16.723Z,5536.00
2023-05-03T15:36:17.088Z,5564.00
2023-05-03T15:38:17.418Z,5672.00
2023-05-03T15:40:17.675Z,5900.00
2023-05-03T15:42:18.000Z,5948.00
2023-05-03T15:44:18.307Z,5940.00
2023-05-03T15:46:18.618Z,5344.00
2023-05-03T15:48:19.139Z,5584.00
2023-05-03T15:50:19.417Z,5200.00
2023-05-03T15:52:19.731Z,5880.00
2023-05-03T15:54:20.060Z,5560.00
2023-05-03T15:56:20.366Z,5344.00
2023-05-03T15:58:20.681Z,5756.00
2023-05-03T16:00:21.011Z,5852.00
2023-05-03T16:02:21.309Z,5484.00
2023-05-03T16:04:21.648Z,5364.00
2023-05-03T16:06:21.896Z,5524.00
2023-05-03T16:08:22.337Z,5440.00
2023-05-03T16:10:24.767Z,5444.00
2023-05-03T16:12:25.472Z,5048.00
2023-05-03T16:14:25.822Z,4976.00
2023-05-03T16:16:26.193Z,4456.00
2023-05-03T16:18:26.518Z,4596.00
2023-05-03T16:20:26.816Z,4832.00
2023-05-03T16:22:27.113Z,4824.00
2023-05-03T16:24:27.432Z,4668.00
2023-05-03T16:26:27.797Z,4504.00
2023-05-03T16:28:28.113Z,4228.00
2023-05-03T16:30:28.418Z,4700.00
2023-05-03T16:32:28.753Z,5012.00
2023-05-03T16:34:29.025Z,4920.00
2023-05-03T16:36:29.307Z,4596.00
2023-05-03T16:38:29.624Z,4332.00
2023-05-03T16:40:29.983Z,4504.00
2023-05-03T16:42:30.263Z,4556.00
2023-05-03T16:44:30.583Z,4580.00
2023-05-03T16:46:30.942Z,4596.00
2023-05-03T16:48:31.193Z,4316.00
2023-05-03T16:50:31.457Z,4336.00
2023-05-03T16:52:31.787Z,3788.00
2023-05-03T16:54:32.056Z,3544.00
2023-05-03T16:56:32.485Z,3684.00
2023-05-03T16:58:33.535Z,3700.00
2023-05-03T17:00:33.922Z,3452.00
2023-05-03T17:02:34.475Z,3088.00
2023-05-03T17:04:34.896Z,2724.00
2023-05-03T17:06:35.229Z,2644.00
2023-05-03T17:08:35.540Z,2624.00
2023-05-03T17:10:35.840Z,2300.00
2023-05-03T17:12:36.210Z,2152.00
2023-05-03T17:14:36.532Z,1892.00
2023-05-03T17:16:36.861Z,1956.00
2023-05-03T17:18:37.150Z,1912.00
2023-05-03T17:20:37.428Z,1988.00
2023-05-03T17:22:37.768Z,1844.00
2023-05-03T17:24:38.057Z,1800.00
2023-05-03T17:26:38.355Z,1660.00
2023-05-03T17:28:38.690Z,1568.00
2023-05-03T17:30:38.938Z,1572.00
2023-05-03T17:32:39.362Z,1492.00
2023-05-03T17:34:39.698Z,1392.00
2023-05-03T17:36:39.988Z,1420.00
2023-05-03T17:38:40.291Z,1352.00
2023-05-03T17:40:40.601Z,1324.00
2023-05-03T17:42:40.909Z,1424.00
2023-05-03T17:44:41.308Z,1336.00
2023-05-03T17:46:41.592Z,1320.00
2023-05-03T17:48:41.908Z,1220.00
2023-05-03T17:50:42.194Z,1080.00
2023-05-03T17:52:42.496Z,1004.00
2023-05-03T17:54:42.812Z,1016.00
2023-05-03T17:56:43.258Z,984.00
2023-05-03T17:58:43.710Z,920.00
2023-05-03T18:00:44.113Z,800.00
2023-05-03T18:02:44.572Z,800.00
2023-05-03T18:05:27.037Z,720.00
2023-05-03T18:07:27.373Z,660.00
2023-05-03T18:09:27.615Z,632.00
2023-05-03T18:11:28.035Z,600.00
2023-05-03T18:13:28.291Z,592.00
2023-05-03T18:15:28.595Z,544.00
2023-05-03T18:17:33.843Z,516.00
2023-05-03T18:19:37.002Z,452.00
2023-05-03T18:21:37.519Z,424.00
2023-05-03T18:23:38.119Z,408.00
2023-05-03T18:25:38.456Z,368.00
2023-05-03T18:27:38.746Z,328.00
2023-05-03T18:29:39.169Z,308.00
2023-05-03T18:31:39.494Z,288.00
2023-05-03T18:33:39.827Z,252.00
2023-05-03T18:35:40.210Z,216.00
2023-05-03T18:37:40.523Z,172.00
2023-05-03T18:39:40.842Z,152.00
2023-05-03T18:41:41.220Z,116.00
2023-05-03T18:43:41.503Z,100.00
2023-05-03T18:45:41.776Z,84.00
2023-05-03T18:47:42.156Z,72.00
2023-05-03T18:49:42.562Z,52.00
2023-05-03T18:51:42.898Z,44.00
2023-05-03T18:53:43.224Z,36.00
2023-05-03T18:55:43.592Z,28.00
2023-05-03T18:57:43.887Z,20.00
2023-05-03T18:59:56.719Z,16.00
2023-05-03T19:01:49.394Z,12.00
2023-05-03T19:03:49.640Z,8.00
2023-05-03T19:05:50.064Z,4.00
2023-05-03T19:07:50.405Z,4.00
2023-05-03T19:09:50.661Z,4.00
2023-05-03T19:11:50.968Z,4.00
2023-05-03T19:13:51.255Z,0.00
2023-05-03T19:15:51.571Z,4.00
2023-05-03T19:17:51.940Z,4.00
2023-05-03T19:19:52.208Z,4.00
2023-05-03T19:21:52.545Z,0.00
2023-05-03T19:23:52.864Z,0.00
2023-05-03T19:25:53.224Z,0.00
2023-05-03T19:27:53.452Z,0.00
2023-05-03T19:29:53.786Z,0.00
2023-05-03T19:31:54.100Z,0.00
2023-05-03T19:33:54.703Z,0.00
2023-05-03T19:35:56.139Z,0.00
2023-05-03T19:37:57.744Z,0.00
2023-05-03T19:39:58.033Z,0.00
2023-05-03T19:41:58.335Z,0.00
2023-05-03T19:43:58.712Z,0.00
2023-05-03T19:45:59.017Z,0.00
2023-05-03T19:47:59.611Z,0.00
2023-05-03T19:50:00.052Z,0.00
2023-05-03T19:52:00.415Z,0.00
2023-05-03T19:54:00.694Z,0.00
2023-05-03T19:56:00.972Z,0.00
2023-05-03T19:58:01.343Z,0.00
2023-05-03T20:00:01.918Z,0.00
2023-05-03T20:02:02.406Z,0.00
2023-05-03T20:04:02.973Z,0.00
2023-05-03T20:06:03.327Z,0.00
2023-05-03T20:08:03.650Z,0.00
2023-05-03T20:10:04.062Z,0.00
2023-05-03T20:12:04.531Z,0.00
2023-05-03T20:14:04.840Z,0.00
2023-05-03T20:16:05.137Z,0.00
2023-05-03T20:18:05.428Z,0.00
2023-05-03T20:20:06.027Z,0.00
2023-05-03T20:22:06.381Z,0.00
2023-05-03T20:24:06.747Z,0.00
2023-05-03T20:26:07.079Z,0.00
2023-05-03T20:28:07.364Z,0.00
2023-05-03T20:30:08.011Z,0.00
2023-05-03T20:32:08.567Z,0.00
2023-05-03T20:34:09.021Z,0.00
2023-05-03T20:36:09.307Z,0.00
2023-05-03T20:38:09.684Z,0.00
2023-05-03T20:40:10.575Z,0.00
2023-05-03T20:42:11.193Z,0.00
2023-05-03T20:44:11.880Z,0.00
2023-05-03T20:46:12.281Z,0.00
2023-05-03T20:48:12.748Z,0.00
2023-05-03T20:50:13.092Z,0.00
2023-05-03T20:52:13.366Z,0.00
2023-05-03T20:54:13.724Z,0.00
2023-05-03T20:56:14.028Z,0.00
2023-05-03T20:58:14.333Z,0.00
2023-05-03T21:00:14.622Z,0.00
2023-05-03T21:02:14.948Z,0.00
2023-05-03T21:04:15.288Z,0.00
2023-05-03T21:06:16.279Z,0.00
2023-05-03T21:08:16.648Z,0.00
2023-05-03T21:10:16.940Z,0.00
2023-05-03T21:12:17.359Z,0.00
2023-05-03T21:14:17.672Z,0.00
2023-05-03T21:16:18.067Z,0.00
2023-05-03T21:18:18.327Z,0.00
2023-05-03T21:20:18.662Z,0.00
2023-05-03T21:22:18.990Z,0.00
2023-05-03T21:24:19.315Z,0.00
2023-05-03T21:26:19.609Z,0.00
2023-05-03T21:28:19.965Z,0.00
2023-05-03T21:30:20.267Z,0.00
2023-05-03T21:32:20.582Z,0.00
2023-05-03T21:34:20.938Z,0.00
2023-05-03T21:36:21.250Z,0.00
2023-05-03T21:38:21.562Z,0.00
2023-05-03T21:40:21.882Z,0.00
2023-05-03T21:42:22.168Z,0.00
2023-05-03T21:44:22.506Z,0.00
2023-05-03T21:46:22.859Z,0.00
2023-05-03T21:48:23.293Z,0.00
2023-05-03T21:50:23.626Z,0.00
2023-05-03T21:52:23.954Z,0.00
2023-05-03T21:54:24.201Z,0.00
2023-05-03T21:56:24.549Z,0.00
2023-05-03T21:58:24.805Z,0.00
2023-05-03T22:00:25.111Z,0.00
2023-05-03T22:02:25.668Z,0.00
2023-05-03T22:04:26.010Z,0.00
2023-05-03T22:06:26.299Z,0.00
2023-05-03T22:08:26.654Z,0.00
2023-05-03T22:10:26.988Z,0.00
2023-05-03T22:12:27.337Z,0.00
2023-05-03T22:14:27.677Z,0.00
2023-05-03T22:16:28.023Z,0.00
2023-05-03T22:18:28.330Z,0.00
2023-05-03T22:20:28.604Z,0.00
2023-05-03T22:22:29.005Z,0.00
2023-05-03T22:24:29.252Z,0.00
2023-05-03T22:26:29.556Z,0.00
2023-05-03T22:28:29.910Z,0.00
2023-05-03T22:30:30.197Z,0.00
2023-05-03T22:32:30.552Z,0.00
2023-05-03T22:34:30.868Z,0.00
2023-05-03T22:36:31.138Z,0.00
2023-05-03T22:38:31.437Z,0.00
2023-05-03T22:40:31.773Z,0.00
2023-05-03T22:42:32.060Z,0.00
2023-05-03T22:44:32.399Z,0.00
2023-05-03T22:46:32.656Z,0.00
2023-05-03T22:48:32.952Z,0.00
2023-05-03T22:50:33.290Z,0.00
2023-05-03T22:52:33.617Z,0.00
2023-05-03T22:54:33.953Z,0.00
2023-05-03T22:56:34.247Z,0.00
2023-05-03T22:58:34.566Z,0.00
2023-05-03T23:00:34.865Z,0.00
2023-05-03T23:02:35.200Z,0.00
2023-05-03T23:04:35.559Z,0.00
2023-05-03T23:06:35.889Z,0.00
2023-05-03T23:08:36.263Z,0.00
2023-05-03T23:10:36.615Z,0.00
2023-05-03T23:12:36.955Z,0.00
2023-05-03T23:14:37.286Z,0.00
2023-05-03T23:16:42.591Z,0.00
2023-05-03T23:18:42.908Z,0.00
2023-05-03T23:20:43.209Z,0.00
2023-05-03T23:22:43.530Z,0.00
2023-05-03T23:24:43.809Z,0.00
2023-05-03T23:26:44.121Z,0.00
2023-05-03T23:28:44.496Z,0.00
2023-05-03T23:30:45.370Z,0.00
2023-05-03T23:32:46.284Z,0.00
2023-05-03T23:34:47.033Z,0.00
2023-05-03T23:36:52.221Z,0.00
2023-05-03T23:38:52.538Z,0.00
2023-05-03T23:40:52.898Z,0.00
2023-05-03T23:42:53.182Z,0.00
2023-05-03T23:44:55.083Z,0.00
2023-05-03T23:46:56.195Z,0.00
2023-05-03T23:48:56.470Z,0.00
2023-05-03T23:50:56.832Z,0.00
2023-05-03T23:52:57.100Z,0.00
2023-05-03T23:54:57.557Z,0.00
2023-05-03T23:56:57.815Z,0.00
2023-05-03T23:58:58.129Z,0.00
